Dorr, Michigan
Current Conditions -  °F | °C
As of 1:53 PM on Friday 28 Nov 2014 (Local Time) from KGRR Reporting Station
Light Snow Light Snow  
Wind Chill: 11°   Ceiling: 4500
Heat Index: 24°   Visibility: 8mi
Dew Point: 15°   Wind: 15mph
Humidity: 69%   Direction: 180°S
Pressure: 30.16"   Gusts: NA
Location:  42.73°N, 85.72°W
Report Text: KGRR 281853Z 18013KT 8SM -SN BKN045 OVC080 M04/M09 A3016 RMK AO2 SLP226 P0000 T10441094 $
Loading
Personal Weather Stations






























Interactive Weather Map New forecast layout! Learn more

10-Day Weather Forecast

Advertisements
Track Severe Weather on mobile